CheckWX is a tool to help pilots better visualize weather data.  It is not intended as a substitute for an official pre-flight weather briefing.

19:07:26 UTC

KSQI METAR
Whiteside Co Arpt-Jos H Bittorf Field Airport
Sterling/Rockfalls, Illinois, USA
Current

11 mins ago

KSQI 271856Z 31005KT 10SM OVC009 01/M03 A3002 RMK AO2 SLP034 T00061028 FZRANO
Observed
Jan-27 @ 18:56 UTC
Wind
  • 310° at 5 KTS
Visibility
10 SM
Flight Rules
IFR
Cloud Levels
  • Overcast at 900' AGL
Temperature
C / 34°F
Dewpoint
-3°C / 27°F
Humidity
75%
Altimeter
30.02" Hg
Pressure
1016.62 hPa
Previous

1 hour ago

KSQI 271756Z 28007KT 7SM OVC009 00/M03 A3003 RMK AO2 SLP036 T00001028 10000 21022 50007 FZRANO
Observed
Jan-27 @ 17:56 UTC
Wind
  • 280° at 7 KTS
Visibility
7 SM
Flight Rules
IFR
Cloud Levels
  • Overcast at 900' AGL
Temperature
C / 32°F
Dewpoint
-3°C / 27°F
Humidity
80%
Altimeter
30.03" Hg
Pressure
1016.92 hPa
Previous

1 hour ago

KSQI 271742Z 28008KT 7SM OVC009 00/M03 A3003 RMK AO2 FZRANO
Observed
Jan-27 @ 17:42 UTC
Wind
  • 280° at 8 KTS
Visibility
7 SM
Flight Rules
IFR
Cloud Levels
  • Overcast at 900' AGL
Temperature
C / 32°F
Dewpoint
-3°C / 27°F
Humidity
80%
Altimeter
30.03" Hg
Pressure
1016.92 hPa